TimeEST,TemperatureF,Dew PointF,Humidity,Sea Level PressureIn,VisibilityMPH,Wind Direction,Wind SpeedMPH,Gust SpeedMPH,PrecipitationIn,Events,Conditions,WindDirDegrees,DateUTC
12:15 AM,32.0,31.1,96,29.53,5.0,Calm,Calm,-,N/A,,Mostly Cloudy,0,2012-12-27 05:15:00
12:35 AM,32.0,30.6,94,29.53,4.0,Calm,Calm,-,N/A,,Overcast,0,2012-12-27 05:35:00
12:55 AM,32.0,30.6,94,29.53,4.0,Calm,Calm,-,N/A,,Mostly Cloudy,0,2012-12-27 05:55:00
1:15 AM,32.0,30.7,95,29.52,4.0,Calm,Calm,-,N/A,,Mostly Cloudy,0,2012-12-27 06:15:00
1:35 AM,32.0,30.9,96,29.53,4.0,Calm,Calm,-,N/A,,Overcast,0,2012-12-27 06:35:00
1:55 AM,31.8,30.2,94,29.53,3.0,Calm,Calm,-,N/A,,Overcast,0,2012-12-27 06:55:00
2:15 AM,30.7,29.3,94,29.54,2.5,Calm,Calm,-,N/A,,Mostly Cloudy,0,2012-12-27 07:15:00
2:35 AM,30.9,29.3,94,29.55,3.0,Calm,Calm,-,N/A,,Mostly Cloudy,0,2012-12-27 07:35:00
2:55 AM,30.7,29.3,94,29.56,7.0,Calm,Calm,-,N/A,,Scattered Clouds,0,2012-12-27 07:55:00
3:15 AM,30.0,28.2,93,29.56,4.0,Calm,Calm,-,N/A,,Mostly Cloudy,0,2012-12-27 08:15:00
3:35 AM,34.7,29.3,81,29.57,10.0,Calm,Calm,-,N/A,,Mostly Cloudy,0,2012-12-27 08:35:00
3:55 AM,34.9,29.5,81,29.59,10.0,Calm,Calm,-,N/A,,Overcast,0,2012-12-27 08:55:00
4:15 AM,36.7,29.3,75,29.59,10.0,Calm,Calm,-,N/A,,Overcast,0,2012-12-27 09:15:00
4:55 AM,36.5,29.7,76,29.61,10.0,Calm,Calm,-,N/A,,Overcast,0,2012-12-27 09:55:00
5:35 AM,36.9,29.3,74,29.64,10.0,West,4.6,-,N/A,,Overcast,280,2012-12-27 10:35:00
5:55 AM,36.7,28.4,72,29.66,10.0,West,4.6,-,N/A,,Overcast,280,2012-12-27 10:55:00
6:15 AM,36.5,26.8,68,29.68,10.0,WNW,6.9,-,N/A,,Mostly Cloudy,290,2012-12-27 11:15:00
6:35 AM,36.0,26.6,69,29.70,10.0,West,3.5,-,N/A,,Overcast,270,2012-12-27 11:35:00
6:55 AM,36.3,25.9,66,29.71,10.0,Calm,Calm,-,N/A,,Overcast,0,2012-12-27 11:55:00
7:15 AM,35.6,26.2,69,29.72,10.0,WNW,3.5,-,N/A,,Overcast,300,2012-12-27 12:15:00
7:35 AM,34.9,26.6,72,29.73,10.0,Calm,Calm,-,N/A,,Overcast,0,2012-12-27 12:35:00
7:55 AM,35.1,26.6,71,29.74,10.0,Calm,Calm,-,N/A,,Overcast,0,2012-12-27 12:55:00
8:15 AM,35.2,25.7,68,29.76,10.0,West,3.5,-,N/A,,Overcast,280,2012-12-27 13:15:00
8:35 AM,35.4,25.3,67,29.76,10.0,WNW,9.2,16.1,N/A,,Mostly Cloudy,300,2012-12-27 13:35:00
8:55 AM,35.4,25.7,68,29.78,10.0,West,6.9,-,N/A,,Scattered Clouds,280,2012-12-27 13:55:00
9:15 AM,36.1,25.0,64,29.79,10.0,WNW,12.7,-,N/A,,Mostly Cloudy,290,2012-12-27 14:15:00
9:55 AM,36.7,25.3,64,29.80,10.0,WNW,13.8,-,N/A,,Scattered Clouds,300,2012-12-27 14:55:00
10:15 AM,37.2,25.5,63,29.81,10.0,WNW,16.1,19.6,N/A,,Scattered Clouds,300,2012-12-27 15:15:00
10:55 AM,37.4,25.3,62,29.83,10.0,WNW,15.0,20.7,N/A,,Clear,300,2012-12-27 15:55:00
11:15 AM,37.6,25.3,61,29.84,10.0,West,13.8,19.6,N/A,,Clear,280,2012-12-27 16:15:00
11:35 AM,37.4,24.8,60,29.84,10.0,WNW,4.6,-,N/A,,Clear,290,2012-12-27 16:35:00
11:55 AM,38.1,25.0,59,29.84,10.0,West,10.4,-,N/A,,Clear,280,2012-12-27 16:55:00
12:15 PM,38.5,25.3,59,29.82,10.0,WNW,11.5,-,N/A,,Clear,290,2012-12-27 17:15:00
12:35 PM,38.8,25.3,58,29.82,10.0,WNW,10.4,16.1,N/A,,Clear,290,2012-12-27 17:35:00
12:55 PM,38.8,24.8,57,29.83,10.0,Calm,Calm,-,N/A,,Clear,0,2012-12-27 17:55:00
1:15 PM,39.2,24.3,55,29.84,10.0,Calm,Calm,-,N/A,,Clear,0,2012-12-27 18:15:00
1:35 PM,39.6,25.0,56,29.84,10.0,NW,3.5,-,N/A,,Scattered Clouds,310,2012-12-27 18:35:00
1:55 PM,40.5,25.0,54,29.85,10.0,WNW,3.5,-,N/A,,Mostly Cloudy,300,2012-12-27 18:55:00
2:15 PM,40.3,24.6,54,29.86,10.0,WNW,12.7,17.3,N/A,,Scattered Clouds,300,2012-12-27 19:15:00
2:35 PM,40.1,24.1,53,29.87,10.0,WNW,6.9,-,N/A,,Clear,300,2012-12-27 19:35:00
2:55 PM,39.7,23.9,53,29.89,10.0,WNW,13.8,18.4,N/A,,Scattered Clouds,300,2012-12-27 19:55:00
3:15 PM,39.0,22.1,51,29.90,10.0,WNW,13.8,19.6,N/A,,Scattered Clouds,300,2012-12-27 20:15:00
3:35 PM,38.1,22.8,54,29.91,10.0,WNW,12.7,18.4,N/A,,Clear,300,2012-12-27 20:35:00
3:55 PM,37.8,23.2,56,29.92,10.0,WNW,8.1,-,N/A,,Clear,300,2012-12-27 20:55:00
4:15 PM,37.0,22.6,56,29.93,10.0,WNW,11.5,-,N/A,,Clear,300,2012-12-27 21:15:00
4:35 PM,36.5,22.5,57,29.95,10.0,WNW,6.9,-,N/A,,Clear,290,2012-12-27 21:35:00
4:55 PM,35.2,23.4,62,29.96,10.0,NW,6.9,-,N/A,,Clear,310,2012-12-27 21:55:00
5:15 PM,35.1,22.8,61,29.96,10.0,WNW,8.1,-,N/A,,Clear,300,2012-12-27 22:15:00
5:35 PM,35.2,21.9,58,29.97,10.0,WNW,9.2,-,N/A,,Clear,290,2012-12-27 22:35:00
5:55 PM,34.7,22.1,60,29.98,10.0,WNW,9.2,-,N/A,,Clear,290,2012-12-27 22:55:00
6:15 PM,34.0,22.1,62,29.98,10.0,WNW,8.1,-,N/A,,Clear,290,2012-12-27 23:15:00
6:35 PM,33.8,22.6,64,29.99,10.0,SSW,3.5,-,N/A,,Clear,210,2012-12-27 23:35:00
7:15 PM,34.0,21.9,61,30.01,10.0,WNW,3.5,-,N/A,,Mostly Cloudy,300,2012-12-28 00:15:00
7:35 PM,33.4,22.1,63,30.01,10.0,NW,5.8,-,N/A,,Scattered Clouds,320,2012-12-28 00:35:00
7:55 PM,32.9,22.1,65,30.02,10.0,Calm,Calm,-,N/A,,Scattered Clouds,0,2012-12-28 00:55:00
8:15 PM,32.7,22.3,65,30.03,10.0,Calm,Calm,-,N/A,,Overcast,0,2012-12-28 01:15:00
8:35 PM,32.2,22.8,68,30.02,10.0,Calm,Calm,-,N/A,,Overcast,0,2012-12-28 01:35:00
8:55 PM,30.9,22.6,71,30.03,10.0,NW,4.6,-,N/A,,Mostly Cloudy,310,2012-12-28 01:55:00
9:15 PM,30.4,22.8,73,30.04,10.0,Calm,Calm,-,N/A,,Clear,0,2012-12-28 02:15:00
9:35 PM,31.5,22.8,70,30.05,10.0,NW,3.5,-,N/A,,Scattered Clouds,310,2012-12-28 02:35:00
9:55 PM,30.6,22.6,72,30.05,10.0,Calm,Calm,-,N/A,,Scattered Clouds,0,2012-12-28 02:55:00
10:15 PM,31.1,23.0,72,30.05,10.0,Calm,Calm,-,N/A,,Scattered Clouds,0,2012-12-28 03:15:00
10:35 PM,30.2,23.2,75,30.06,10.0,Calm,Calm,-,N/A,,Mostly Cloudy,0,2012-12-28 03:35:00
10:55 PM,31.5,22.8,70,30.06,10.0,NW,5.8,-,N/A,,Scattered Clouds,310,2012-12-28 03:55:00
11:15 PM,29.8,22.6,75,30.06,10.0,Calm,Calm,-,N/A,,Clear,0,2012-12-28 04:15:00
11:35 PM,28.2,23.0,81,30.06,10.0,Calm,Calm,-,N/A,,Clear,0,2012-12-28 04:35:00
11:55 PM,28.4,22.5,78,30.06,10.0,Calm,Calm,-,N/A,,Clear,0,2012-12-28 04:55:00